sensor_id;sensor_type;location;lat;lon;timestamp;temperature;humidity
2441;DHT22;1231;53.988;9.470;2022-07-23T00:00:20;16.60;79.70
2441;DHT22;1231;53.988;9.470;2022-07-23T00:02:51;16.60;79.70
2441;DHT22;1231;53.988;9.470;2022-07-23T00:05:21;16.60;79.70
2441;DHT22;1231;53.988;9.470;2022-07-23T00:07:52;16.70;79.70
2441;DHT22;1231;53.988;9.470;2022-07-23T00:10:23;16.70;79.70
2441;DHT22;1231;53.988;9.470;2022-07-23T00:12:53;16.70;79.70
2441;DHT22;1231;53.988;9.470;2022-07-23T00:15:24;16.70;79.70
2441;DHT22;1231;53.988;9.470;2022-07-23T00:17:55;16.70;79.60
2441;DHT22;1231;53.988;9.470;2022-07-23T00:20:25;16.70;79.60
2441;DHT22;1231;53.988;9.470;2022-07-23T00:22:56;16.70;79.70
2441;DHT22;1231;53.988;9.470;2022-07-23T00:25:27;16.70;79.70
2441;DHT22;1231;53.988;9.470;2022-07-23T00:27:58;16.70;79.70
2441;DHT22;1231;53.988;9.470;2022-07-23T00:30:30;16.80;79.60
2441;DHT22;1231;53.988;9.470;2022-07-23T00:33:04;16.80;79.60
2441;DHT22;1231;53.988;9.470;2022-07-23T00:35:37;16.80;79.70
2441;DHT22;1231;53.988;9.470;2022-07-23T00:38:09;16.80;79.80
2441;DHT22;1231;53.988;9.470;2022-07-23T00:40:40;16.80;79.80
2441;DHT22;1231;53.988;9.470;2022-07-23T00:43:10;16.80;79.80
2441;DHT22;1231;53.988;9.470;2022-07-23T00:45:41;16.80;79.70
2441;DHT22;1231;53.988;9.470;2022-07-23T00:48:12;16.80;79.70
2441;DHT22;1231;53.988;9.470;2022-07-23T00:50:43;16.80;79.80
2441;DHT22;1231;53.988;9.470;2022-07-23T00:53:14;16.80;79.80
2441;DHT22;1231;53.988;9.470;2022-07-23T00:55:45;16.80;79.70
2441;DHT22;1231;53.988;9.470;2022-07-23T00:58:17;16.80;79.70
2441;DHT22;1231;53.988;9.470;2022-07-23T01:00:48;16.80;79.60
2441;DHT22;1231;53.988;9.470;2022-07-23T01:03:19;16.80;79.60
2441;DHT22;1231;53.988;9.470;2022-07-23T01:05:50;16.80;79.60
2441;DHT22;1231;53.988;9.470;2022-07-23T01:08:20;16.70;79.80
2441;DHT22;1231;53.988;9.470;2022-07-23T01:10:51;16.80;79.80
2441;DHT22;1231;53.988;9.470;2022-07-23T01:13:22;16.70;79.80
2441;DHT22;1231;53.988;9.470;2022-07-23T01:15:52;16.70;79.80
2441;DHT22;1231;53.988;9.470;2022-07-23T01:18:23;16.70;79.90
2441;DHT22;1231;53.988;9.470;2022-07-23T01:20:54;16.70;80.00
2441;DHT22;1231;53.988;9.470;2022-07-23T01:23:24;16.70;80.00
2441;DHT22;1231;53.988;9.470;2022-07-23T01:25:55;16.70;80.10
2441;DHT22;1231;53.988;9.470;2022-07-23T01:28:26;16.70;80.10
2441;DHT22;1231;53.988;9.470;2022-07-23T01:30:56;16.70;80.20
2441;DHT22;1231;53.988;9.470;2022-07-23T01:33:27;16.70;80.20
2441;DHT22;1231;53.988;9.470;2022-07-23T01:35:57;16.70;80.20
2441;DHT22;1231;53.988;9.470;2022-07-23T01:38:28;16.70;80.30
2441;DHT22;1231;53.988;9.470;2022-07-23T01:40:58;16.70;80.30
2441;DHT22;1231;53.988;9.470;2022-07-23T01:43:29;16.70;80.40
2441;DHT22;1231;53.988;9.470;2022-07-23T01:46:00;16.70;80.40
2441;DHT22;1231;53.988;9.470;2022-07-23T01:48:30;16.70;80.60
2441;DHT22;1231;53.988;9.470;2022-07-23T01:51:01;16.70;80.60
2441;DHT22;1231;53.988;9.470;2022-07-23T01:53:32;16.70;80.60
2441;DHT22;1231;53.988;9.470;2022-07-23T01:56:03;16.70;80.60
2441;DHT22;1231;53.988;9.470;2022-07-23T01:58:33;16.70;80.60
2441;DHT22;1231;53.988;9.470;2022-07-23T02:01:04;16.70;80.60
2441;DHT22;1231;53.988;9.470;2022-07-23T02:03:35;16.70;80.60
2441;DHT22;1231;53.988;9.470;2022-07-23T02:06:05;16.70;80.60
2441;DHT22;1231;53.988;9.470;2022-07-23T02:08:36;16.70;80.60
2441;DHT22;1231;53.988;9.470;2022-07-23T02:11:06;16.70;80.80
2441;DHT22;1231;53.988;9.470;2022-07-23T02:13:37;16.60;80.70
2441;DHT22;1231;53.988;9.470;2022-07-23T02:16:08;16.60;80.80
2441;DHT22;1231;53.988;9.470;2022-07-23T02:18:38;16.60;80.80
2441;DHT22;1231;53.988;9.470;2022-07-23T02:21:09;16.60;80.80
2441;DHT22;1231;53.988;9.470;2022-07-23T02:23:40;16.60;80.90
2441;DHT22;1231;53.988;9.470;2022-07-23T02:26:11;16.70;80.80
2441;DHT22;1231;53.988;9.470;2022-07-23T02:28:41;16.60;80.80
2441;DHT22;1231;53.988;9.470;2022-07-23T02:31:12;16.60;80.80
2441;DHT22;1231;53.988;9.470;2022-07-23T02:33:43;16.60;80.80
2441;DHT22;1231;53.988;9.470;2022-07-23T02:36:13;16.60;80.80
2441;DHT22;1231;53.988;9.470;2022-07-23T02:38:44;16.60;80.80
2441;DHT22;1231;53.988;9.470;2022-07-23T02:41:14;16.60;80.80
2441;DHT22;1231;53.988;9.470;2022-07-23T02:43:45;16.60;80.80
2441;DHT22;1231;53.988;9.470;2022-07-23T02:46:15;16.50;80.90
2441;DHT22;1231;53.988;9.470;2022-07-23T02:48:46;16.50;80.90
2441;DHT22;1231;53.988;9.470;2022-07-23T02:51:17;16.50;80.90
2441;DHT22;1231;53.988;9.470;2022-07-23T02:53:47;16.50;81.00
2441;DHT22;1231;53.988;9.470;2022-07-23T02:56:18;16.50;81.00
2441;DHT22;1231;53.988;9.470;2022-07-23T02:58:49;16.40;81.00
2441;DHT22;1231;53.988;9.470;2022-07-23T03:01:19;16.40;81.10
2441;DHT22;1231;53.988;9.470;2022-07-23T03:03:50;16.40;81.10
2441;DHT22;1231;53.988;9.470;2022-07-23T03:06:21;16.40;81.20
2441;DHT22;1231;53.988;9.470;2022-07-23T03:08:52;16.40;81.20
2441;DHT22;1231;53.988;9.470;2022-07-23T03:11:22;16.30;81.20
2441;DHT22;1231;53.988;9.470;2022-07-23T03:13:53;16.30;81.20
2441;DHT22;1231;53.988;9.470;2022-07-23T03:16:23;16.20;81.20
2441;DHT22;1231;53.988;9.470;2022-07-23T03:18:54;16.20;81.30
2441;DHT22;1231;53.988;9.470;2022-07-23T03:21:24;16.20;81.40
2441;DHT22;1231;53.988;9.470;2022-07-23T03:23:55;16.20;81.40
2441;DHT22;1231;53.988;9.470;2022-07-23T03:26:26;16.20;81.50
2441;DHT22;1231;53.988;9.470;2022-07-23T03:28:57;16.20;81.50
2441;DHT22;1231;53.988;9.470;2022-07-23T03:31:27;16.20;81.50
2441;DHT22;1231;53.988;9.470;2022-07-23T03:33:58;16.20;81.60
2441;DHT22;1231;53.988;9.470;2022-07-23T03:36:28;16.20;81.60
2441;DHT22;1231;53.988;9.470;2022-07-23T03:38:59;16.30;81.60
2441;DHT22;1231;53.988;9.470;2022-07-23T03:41:30;16.30;81.60
2441;DHT22;1231;53.988;9.470;2022-07-23T03:44:00;16.20;81.60
2441;DHT22;1231;53.988;9.470;2022-07-23T03:46:31;16.30;81.70
2441;DHT22;1231;53.988;9.470;2022-07-23T03:49:01;16.30;81.70
2441;DHT22;1231;53.988;9.470;2022-07-23T03:51:32;16.30;81.80
2441;DHT22;1231;53.988;9.470;2022-07-23T03:54:02;16.30;81.80
2441;DHT22;1231;53.988;9.470;2022-07-23T03:56:33;16.30;81.80
2441;DHT22;1231;53.988;9.470;2022-07-23T03:59:04;16.30;81.90
2441;DHT22;1231;53.988;9.470;2022-07-23T04:01:34;16.40;81.90
2441;DHT22;1231;53.988;9.470;2022-07-23T04:04:05;16.40;82.00
2441;DHT22;1231;53.988;9.470;2022-07-23T04:06:36;16.40;82.00
2441;DHT22;1231;53.988;9.470;2022-07-23T04:09:06;16.50;81.90
2441;DHT22;1231;53.988;9.470;2022-07-23T04:11:37;16.50;81.90
2441;DHT22;1231;53.988;9.470;2022-07-23T04:14:08;16.60;81.80
2441;DHT22;1231;53.988;9.470;2022-07-23T04:16:38;16.60;81.70
2441;DHT22;1231;53.988;9.470;2022-07-23T04:19:09;16.70;81.70
2441;DHT22;1231;53.988;9.470;2022-07-23T04:21:40;16.80;81.60
2441;DHT22;1231;53.988;9.470;2022-07-23T04:24:10;16.80;81.50
2441;DHT22;1231;53.988;9.470;2022-07-23T04:26:41;16.80;81.40
2441;DHT22;1231;53.988;9.470;2022-07-23T04:29:11;16.80;81.40
2441;DHT22;1231;53.988;9.470;2022-07-23T04:31:43;16.90;81.30
2441;DHT22;1231;53.988;9.470;2022-07-23T04:34:13;16.90;81.20
2441;DHT22;1231;53.988;9.470;2022-07-23T04:36:44;16.90;81.20
2441;DHT22;1231;53.988;9.470;2022-07-23T04:39:14;16.90;81.10
2441;DHT22;1231;53.988;9.470;2022-07-23T04:41:45;17.00;81.10
2441;DHT22;1231;53.988;9.470;2022-07-23T04:44:16;17.00;81.10
2441;DHT22;1231;53.988;9.470;2022-07-23T04:46:46;17.00;81.00
2441;DHT22;1231;53.988;9.470;2022-07-23T04:49:17;17.00;81.00
2441;DHT22;1231;53.988;9.470;2022-07-23T04:51:48;17.00;81.00
2441;DHT22;1231;53.988;9.470;2022-07-23T04:54:18;17.00;81.00
2441;DHT22;1231;53.988;9.470;2022-07-23T04:56:49;17.00;81.00
2441;DHT22;1231;53.988;9.470;2022-07-23T04:59:19;17.00;81.00
2441;DHT22;1231;53.988;9.470;2022-07-23T05:01:50;17.00;81.00
2441;DHT22;1231;53.988;9.470;2022-07-23T05:04:20;16.90;81.00
2441;DHT22;1231;53.988;9.470;2022-07-23T05:06:51;16.90;81.10
2441;DHT22;1231;53.988;9.470;2022-07-23T05:09:22;16.90;81.20
2441;DHT22;1231;53.988;9.470;2022-07-23T05:11:52;16.90;81.30
2441;DHT22;1231;53.988;9.470;2022-07-23T05:14:23;16.90;81.40
2441;DHT22;1231;53.988;9.470;2022-07-23T05:16:53;16.90;81.50
2441;DHT22;1231;53.988;9.470;2022-07-23T05:19:24;16.80;81.60
2441;DHT22;1231;53.988;9.470;2022-07-23T05:21:55;16.80;81.70
2441;DHT22;1231;53.988;9.470;2022-07-23T05:24:25;16.80;81.70
2441;DHT22;1231;53.988;9.470;2022-07-23T05:26:56;16.80;81.70
2441;DHT22;1231;53.988;9.470;2022-07-23T05:29:27;16.80;81.70
2441;DHT22;1231;53.988;9.470;2022-07-23T05:31:57;16.80;81.70
2441;DHT22;1231;53.988;9.470;2022-07-23T05:34:28;16.80;81.70
2441;DHT22;1231;53.988;9.470;2022-07-23T05:36:59;16.90;81.80
2441;DHT22;1231;53.988;9.470;2022-07-23T05:39:29;16.90;81.80
2441;DHT22;1231;53.988;9.470;2022-07-23T05:42:00;16.90;81.80
2441;DHT22;1231;53.988;9.470;2022-07-23T05:44:30;16.90;81.80
2441;DHT22;1231;53.988;9.470;2022-07-23T05:47:02;16.90;81.80
2441;DHT22;1231;53.988;9.470;2022-07-23T05:49:33;16.90;81.80
2441;DHT22;1231;53.988;9.470;2022-07-23T05:52:05;16.90;81.80
2441;DHT22;1231;53.988;9.470;2022-07-23T05:54:36;16.90;81.80
2441;DHT22;1231;53.988;9.470;2022-07-23T05:57:06;16.90;81.80
2441;DHT22;1231;53.988;9.470;2022-07-23T05:59:37;16.90;81.80
2441;DHT22;1231;53.988;9.470;2022-07-23T06:02:07;17.00;81.80
2441;DHT22;1231;53.988;9.470;2022-07-23T06:04:38;17.00;81.90
2441;DHT22;1231;53.988;9.470;2022-07-23T06:07:08;17.00;81.90
2441;DHT22;1231;53.988;9.470;2022-07-23T06:09:39;17.00;81.90
2441;DHT22;1231;53.988;9.470;2022-07-23T06:12:10;17.00;82.00
2441;DHT22;1231;53.988;9.470;2022-07-23T06:14:40;17.10;82.00
2441;DHT22;1231;53.988;9.470;2022-07-23T06:17:11;17.10;82.00
2441;DHT22;1231;53.988;9.470;2022-07-23T06:19:41;17.10;82.10
2441;DHT22;1231;53.988;9.470;2022-07-23T06:22:12;17.10;82.10
2441;DHT22;1231;53.988;9.470;2022-07-23T06:24:42;17.20;82.10
2441;DHT22;1231;53.988;9.470;2022-07-23T06:27:13;17.20;82.10
2441;DHT22;1231;53.988;9.470;2022-07-23T06:29:44;17.20;82.20
2441;DHT22;1231;53.988;9.470;2022-07-23T06:32:14;17.30;82.20
2441;DHT22;1231;53.988;9.470;2022-07-23T06:34:45;17.50;82.20
2441;DHT22;1231;53.988;9.470;2022-07-23T06:37:18;17.60;82.10
2441;DHT22;1231;53.988;9.470;2022-07-23T06:39:49;17.70;82.10
2441;DHT22;1231;53.988;9.470;2022-07-23T06:42:19;17.90;82.10
2441;DHT22;1231;53.988;9.470;2022-07-23T06:44:50;18.10;81.80
2441;DHT22;1231;53.988;9.470;2022-07-23T06:47:21;18.30;81.30
2441;DHT22;1231;53.988;9.470;2022-07-23T06:49:51;18.40;81.10
2441;DHT22;1231;53.988;9.470;2022-07-23T06:52:22;18.50;80.50
2441;DHT22;1231;53.988;9.470;2022-07-23T06:54:52;18.70;80.10
2441;DHT22;1231;53.988;9.470;2022-07-23T06:57:23;18.70;79.80
2441;DHT22;1231;53.988;9.470;2022-07-23T06:59:55;18.80;79.80
2441;DHT22;1231;53.988;9.470;2022-07-23T07:02:26;18.80;79.70
2441;DHT22;1231;53.988;9.470;2022-07-23T07:04:57;18.90;79.60
2441;DHT22;1231;53.988;9.470;2022-07-23T07:07:27;19.10;79.30
2441;DHT22;1231;53.988;9.470;2022-07-23T07:09:58;19.30;79.10
2441;DHT22;1231;53.988;9.470;2022-07-23T07:12:29;19.50;78.70
2441;DHT22;1231;53.988;9.470;2022-07-23T07:14:59;19.70;78.00
2441;DHT22;1231;53.988;9.470;2022-07-23T07:17:30;19.90;77.60
2441;DHT22;1231;53.988;9.470;2022-07-23T07:20:01;20.00;76.50
2441;DHT22;1231;53.988;9.470;2022-07-23T07:22:32;20.10;75.50
2441;DHT22;1231;53.988;9.470;2022-07-23T07:25:03;20.10;74.90
2441;DHT22;1231;53.988;9.470;2022-07-23T07:27:33;20.20;74.00
2441;DHT22;1231;53.988;9.470;2022-07-23T07:30:05;20.20;73.80
2441;DHT22;1231;53.988;9.470;2022-07-23T07:32:36;20.20;73.10
2441;DHT22;1231;53.988;9.470;2022-07-23T07:35:07;20.40;71.90
2441;DHT22;1231;53.988;9.470;2022-07-23T07:37:38;20.50;70.60
2441;DHT22;1231;53.988;9.470;2022-07-23T07:40:09;20.60;70.10
2441;DHT22;1231;53.988;9.470;2022-07-23T07:42:52;20.60;69.80
2441;DHT22;1231;53.988;9.470;2022-07-23T07:45:23;20.50;68.90
2441;DHT22;1231;53.988;9.470;2022-07-23T07:47:54;20.50;69.20
2441;DHT22;1231;53.988;9.470;2022-07-23T07:50:25;20.50;68.80
2441;DHT22;1231;53.988;9.470;2022-07-23T07:52:56;20.50;67.90
2441;DHT22;1231;53.988;9.470;2022-07-23T07:55:27;20.50;67.40
2441;DHT22;1231;53.988;9.470;2022-07-23T07:57:58;20.50;67.30
2441;DHT22;1231;53.988;9.470;2022-07-23T08:00:29;20.60;67.20
2441;DHT22;1231;53.988;9.470;2022-07-23T08:03:00;20.70;67.40
2441;DHT22;1231;53.988;9.470;2022-07-23T08:05:31;20.90;66.60
2441;DHT22;1231;53.988;9.470;2022-07-23T08:08:01;21.20;66.60
2441;DHT22;1231;53.988;9.470;2022-07-23T08:10:32;21.50;65.80
2441;DHT22;1231;53.988;9.470;2022-07-23T08:13:03;21.50;65.20
2441;DHT22;1231;53.988;9.470;2022-07-23T08:15:33;21.50;64.90
2441;DHT22;1231;53.988;9.470;2022-07-23T08:18:04;21.50;64.70
2441;DHT22;1231;53.988;9.470;2022-07-23T08:20:35;21.50;64.60
2441;DHT22;1231;53.988;9.470;2022-07-23T08:23:07;21.50;64.30
2441;DHT22;1231;53.988;9.470;2022-07-23T08:25:41;21.20;64.20
2441;DHT22;1231;53.988;9.470;2022-07-23T08:28:13;21.00;64.60
2441;DHT22;1231;53.988;9.470;2022-07-23T08:30:44;20.70;65.40
2441;DHT22;1231;53.988;9.470;2022-07-23T08:33:17;20.50;65.90
2441;DHT22;1231;53.988;9.470;2022-07-23T08:35:50;20.30;66.30
2441;DHT22;1231;53.988;9.470;2022-07-23T08:38:23;20.20;66.90
2441;DHT22;1231;53.988;9.470;2022-07-23T08:40:55;20.20;67.30
2441;DHT22;1231;53.988;9.470;2022-07-23T08:43:30;20.20;67.70
2441;DHT22;1231;53.988;9.470;2022-07-23T08:46:03;20.20;67.80
2441;DHT22;1231;53.988;9.470;2022-07-23T08:48:35;20.10;68.20
2441;DHT22;1231;53.988;9.470;2022-07-23T08:51:07;20.10;68.70
2441;DHT22;1231;53.988;9.470;2022-07-23T08:53:38;20.00;69.10
2441;DHT22;1231;53.988;9.470;2022-07-23T08:56:11;20.00;69.20
2441;DHT22;1231;53.988;9.470;2022-07-23T08:58:41;20.00;69.30
2441;DHT22;1231;53.988;9.470;2022-07-23T09:01:12;19.90;69.30
2441;DHT22;1231;53.988;9.470;2022-07-23T09:03:42;19.90;69.80
2441;DHT22;1231;53.988;9.470;2022-07-23T09:06:15;20.00;70.00
2441;DHT22;1231;53.988;9.470;2022-07-23T09:08:45;20.10;69.90
2441;DHT22;1231;53.988;9.470;2022-07-23T09:11:17;20.20;69.80
2441;DHT22;1231;53.988;9.470;2022-07-23T09:13:53;20.20;69.60
2441;DHT22;1231;53.988;9.470;2022-07-23T09:16:31;20.40;69.20
2441;DHT22;1231;53.988;9.470;2022-07-23T09:19:06;20.40;68.60
2441;DHT22;1231;53.988;9.470;2022-07-23T09:21:38;20.60;68.50
2441;DHT22;1231;53.988;9.470;2022-07-23T09:24:13;20.70;68.00
2441;DHT22;1231;53.988;9.470;2022-07-23T09:26:48;20.90;68.20
2441;DHT22;1231;53.988;9.470;2022-07-23T09:29:24;21.10;68.50
2441;DHT22;1231;53.988;9.470;2022-07-23T09:32:00;21.20;68.50
2441;DHT22;1231;53.988;9.470;2022-07-23T09:34:32;21.20;68.40
2441;DHT22;1231;53.988;9.470;2022-07-23T09:37:17;21.30;68.20
2441;DHT22;1231;53.988;9.470;2022-07-23T09:39:48;21.50;67.70
2441;DHT22;1231;53.988;9.470;2022-07-23T09:42:24;21.60;66.90
2441;DHT22;1231;53.988;9.470;2022-07-23T09:44:57;21.80;66.60
2441;DHT22;1231;53.988;9.470;2022-07-23T09:47:30;21.90;66.30
2441;DHT22;1231;53.988;9.470;2022-07-23T09:50:06;21.90;66.10
2441;DHT22;1231;53.988;9.470;2022-07-23T09:52:47;21.90;66.10
2441;DHT22;1231;53.988;9.470;2022-07-23T09:55:19;21.90;66.20
2441;DHT22;1231;53.988;9.470;2022-07-23T09:57:49;22.00;65.70
2441;DHT22;1231;53.988;9.470;2022-07-23T10:00:21;22.00;65.10
2441;DHT22;1231;53.988;9.470;2022-07-23T10:02:53;22.00;65.00
2441;DHT22;1231;53.988;9.470;2022-07-23T10:05:25;22.00;65.40
2441;DHT22;1231;53.988;9.470;2022-07-23T10:07:57;22.00;65.40
2441;DHT22;1231;53.988;9.470;2022-07-23T10:10:30;21.90;65.40
2441;DHT22;1231;53.988;9.470;2022-07-23T10:13:02;21.60;65.70
2441;DHT22;1231;53.988;9.470;2022-07-23T10:15:51;21.30;66.80
2441;DHT22;1231;53.988;9.470;2022-07-23T10:18:22;21.10;67.70
2441;DHT22;1231;53.988;9.470;2022-07-23T10:20:53;21.00;68.30
2441;DHT22;1231;53.988;9.470;2022-07-23T10:23:44;21.00;68.90
2441;DHT22;1231;53.988;9.470;2022-07-23T10:26:41;21.10;69.20
2441;DHT22;1231;53.988;9.470;2022-07-23T10:32:08;21.40;68.20
2441;DHT22;1231;53.988;9.470;2022-07-23T10:34:48;21.40;67.50
2441;DHT22;1231;53.988;9.470;2022-07-23T10:37:27;21.50;65.90
2441;DHT22;1231;53.988;9.470;2022-07-23T10:42:44;21.60;64.60
2441;DHT22;1231;53.988;9.470;2022-07-23T10:48:25;21.70;62.20
2441;DHT22;1231;53.988;9.470;2022-07-23T10:53:58;21.50;61.30
2441;DHT22;1231;53.988;9.470;2022-07-23T10:59:21;21.80;61.10
2441;DHT22;1231;53.988;9.470;2022-07-23T11:01:53;21.80;61.30
2441;DHT22;1231;53.988;9.470;2022-07-23T11:04:51;21.90;60.70
2441;DHT22;1231;53.988;9.470;2022-07-23T11:07:21;21.90;61.30
2441;DHT22;1231;53.988;9.470;2022-07-23T11:09:52;22.10;61.00
2441;DHT22;1231;53.988;9.470;2022-07-23T11:15:11;22.10;60.90
2441;DHT22;1231;53.988;9.470;2022-07-23T11:20:16;22.10;61.90
2441;DHT22;1231;53.988;9.470;2022-07-23T11:22:54;22.10;62.40
2441;DHT22;1231;53.988;9.470;2022-07-23T11:28:08;22.00;62.60
2441;DHT22;1231;53.988;9.470;2022-07-23T11:30:42;22.00;63.20
2441;DHT22;1231;53.988;9.470;2022-07-23T11:35:49;22.00;64.10
2441;DHT22;1231;53.988;9.470;2022-07-23T11:38:21;22.10;64.40
2441;DHT22;1231;53.988;9.470;2022-07-23T11:40:54;22.10;64.40
2441;DHT22;1231;53.988;9.470;2022-07-23T11:43:25;22.10;63.60
2441;DHT22;1231;53.988;9.470;2022-07-23T11:46:00;22.10;63.30
2441;DHT22;1231;53.988;9.470;2022-07-23T11:48:31;22.00;63.30
2441;DHT22;1231;53.988;9.470;2022-07-23T11:51:02;22.00;63.10
2441;DHT22;1231;53.988;9.470;2022-07-23T11:53:34;21.90;63.30
2441;DHT22;1231;53.988;9.470;2022-07-23T11:56:09;21.80;63.50
2441;DHT22;1231;53.988;9.470;2022-07-23T11:58:54;21.60;64.00
2441;DHT22;1231;53.988;9.470;2022-07-23T12:01:27;21.40;64.80
2441;DHT22;1231;53.988;9.470;2022-07-23T12:03:58;21.30;65.00
2441;DHT22;1231;53.988;9.470;2022-07-23T12:06:28;21.20;64.90
2441;DHT22;1231;53.988;9.470;2022-07-23T12:08:59;21.10;65.30
2441;DHT22;1231;53.988;9.470;2022-07-23T12:11:30;21.20;66.00
2441;DHT22;1231;53.988;9.470;2022-07-23T12:14:00;21.20;66.00
2441;DHT22;1231;53.988;9.470;2022-07-23T12:16:31;21.30;65.40
2441;DHT22;1231;53.988;9.470;2022-07-23T12:19:02;21.30;64.60
2441;DHT22;1231;53.988;9.470;2022-07-23T12:21:33;21.40;64.20
2441;DHT22;1231;53.988;9.470;2022-07-23T12:24:07;21.50;63.00
2441;DHT22;1231;53.988;9.470;2022-07-23T12:26:38;21.70;62.60
2441;DHT22;1231;53.988;9.470;2022-07-23T12:29:08;21.70;61.60
2441;DHT22;1231;53.988;9.470;2022-07-23T12:31:39;21.80;62.00
2441;DHT22;1231;53.988;9.470;2022-07-23T12:34:14;22.00;62.60
2441;DHT22;1231;53.988;9.470;2022-07-23T12:36:45;22.10;62.80
2441;DHT22;1231;53.988;9.470;2022-07-23T12:39:32;22.20;62.70
2441;DHT22;1231;53.988;9.470;2022-07-23T12:42:11;22.20;62.60
2441;DHT22;1231;53.988;9.470;2022-07-23T12:45:08;22.10;62.20
2441;DHT22;1231;53.988;9.470;2022-07-23T12:51:06;22.20;62.50
2441;DHT22;1231;53.988;9.470;2022-07-23T12:53:46;22.30;62.10
2441;DHT22;1231;53.988;9.470;2022-07-23T12:56:29;22.30;61.90
2441;DHT22;1231;53.988;9.470;2022-07-23T13:01:36;22.20;62.30
2441;DHT22;1231;53.988;9.470;2022-07-23T13:04:11;22.20;62.60
2441;DHT22;1231;53.988;9.470;2022-07-23T13:09:28;21.70;62.90
2441;DHT22;1231;53.988;9.470;2022-07-23T13:11:59;21.40;64.20
2441;DHT22;1231;53.988;9.470;2022-07-23T13:14:30;21.10;65.90
2441;DHT22;1231;53.988;9.470;2022-07-23T13:17:00;20.80;66.80
2441;DHT22;1231;53.988;9.470;2022-07-23T13:19:31;20.60;67.50
2441;DHT22;1231;53.988;9.470;2022-07-23T13:22:02;20.60;68.30
2441;DHT22;1231;53.988;9.470;2022-07-23T13:24:32;20.70;68.60
2441;DHT22;1231;53.988;9.470;2022-07-23T13:27:03;20.80;68.90
2441;DHT22;1231;53.988;9.470;2022-07-23T13:29:35;21.00;68.60
2441;DHT22;1231;53.988;9.470;2022-07-23T13:32:05;21.20;68.00
2441;DHT22;1231;53.988;9.470;2022-07-23T13:34:36;21.50;68.10
2441;DHT22;1231;53.988;9.470;2022-07-23T13:37:06;21.70;67.50
2441;DHT22;1231;53.988;9.470;2022-07-23T13:39:37;21.80;65.70
2441;DHT22;1231;53.988;9.470;2022-07-23T13:42:08;21.90;65.00
2441;DHT22;1231;53.988;9.470;2022-07-23T13:44:38;22.00;64.70
2441;DHT22;1231;53.988;9.470;2022-07-23T13:47:09;22.00;64.10
2441;DHT22;1231;53.988;9.470;2022-07-23T13:49:39;22.20;63.00
2441;DHT22;1231;53.988;9.470;2022-07-23T13:52:10;22.20;61.90
2441;DHT22;1231;53.988;9.470;2022-07-23T13:54:41;22.20;61.50
2441;DHT22;1231;53.988;9.470;2022-07-23T13:57:11;22.00;61.30
2441;DHT22;1231;53.988;9.470;2022-07-23T13:59:42;21.90;61.10
2441;DHT22;1231;53.988;9.470;2022-07-23T14:02:15;21.90;60.80
2441;DHT22;1231;53.988;9.470;2022-07-23T14:04:47;22.00;60.20
2441;DHT22;1231;53.988;9.470;2022-07-23T14:07:18;22.00;60.50
2441;DHT22;1231;53.988;9.470;2022-07-23T14:09:49;22.00;61.00
2441;DHT22;1231;53.988;9.470;2022-07-23T14:12:19;22.00;60.80
2441;DHT22;1231;53.988;9.470;2022-07-23T14:14:50;21.90;61.10
2441;DHT22;1231;53.988;9.470;2022-07-23T14:17:21;21.90;61.70
2441;DHT22;1231;53.988;9.470;2022-07-23T14:19:51;21.80;61.50
2441;DHT22;1231;53.988;9.470;2022-07-23T14:22:22;21.90;61.90
2441;DHT22;1231;53.988;9.470;2022-07-23T14:24:53;22.10;62.30
2441;DHT22;1231;53.988;9.470;2022-07-23T14:27:25;22.20;62.30
2441;DHT22;1231;53.988;9.470;2022-07-23T14:29:56;22.30;62.30
2441;DHT22;1231;53.988;9.470;2022-07-23T14:32:27;22.30;61.70
2441;DHT22;1231;53.988;9.470;2022-07-23T14:34:58;22.10;61.40
2441;DHT22;1231;53.988;9.470;2022-07-23T14:37:28;22.10;62.10
2441;DHT22;1231;53.988;9.470;2022-07-23T14:39:59;21.90;62.20
2441;DHT22;1231;53.988;9.470;2022-07-23T14:42:30;21.80;61.90
2441;DHT22;1231;53.988;9.470;2022-07-23T14:45:01;21.70;62.20
2441;DHT22;1231;53.988;9.470;2022-07-23T14:47:31;21.70;62.30
2441;DHT22;1231;53.988;9.470;2022-07-23T14:50:02;21.70;62.40
2441;DHT22;1231;53.988;9.470;2022-07-23T14:52:33;21.70;62.30
2441;DHT22;1231;53.988;9.470;2022-07-23T14:55:04;21.70;61.90
2441;DHT22;1231;53.988;9.470;2022-07-23T14:57:35;21.80;62.20
2441;DHT22;1231;53.988;9.470;2022-07-23T15:00:06;21.90;62.10
2441;DHT22;1231;53.988;9.470;2022-07-23T15:02:37;22.00;61.90
2441;DHT22;1231;53.988;9.470;2022-07-23T15:05:07;22.10;61.50
2441;DHT22;1231;53.988;9.470;2022-07-23T15:07:38;22.20;61.00
2441;DHT22;1231;53.988;9.470;2022-07-23T15:10:09;22.20;60.70
2441;DHT22;1231;53.988;9.470;2022-07-23T15:12:39;22.20;60.30
2441;DHT22;1231;53.988;9.470;2022-07-23T15:15:10;22.10;60.20
2441;DHT22;1231;53.988;9.470;2022-07-23T15:17:41;22.00;59.80
2441;DHT22;1231;53.988;9.470;2022-07-23T15:20:12;21.90;59.70
2441;DHT22;1231;53.988;9.470;2022-07-23T15:22:42;21.80;59.70
2441;DHT22;1231;53.988;9.470;2022-07-23T15:25:15;21.80;59.70
2441;DHT22;1231;53.988;9.470;2022-07-23T15:27:45;21.80;60.00
2441;DHT22;1231;53.988;9.470;2022-07-23T15:30:16;21.70;60.00
2441;DHT22;1231;53.988;9.470;2022-07-23T15:32:47;21.60;60.10
2441;DHT22;1231;53.988;9.470;2022-07-23T15:35:17;21.70;60.40
2441;DHT22;1231;53.988;9.470;2022-07-23T15:37:48;21.60;60.40
2441;DHT22;1231;53.988;9.470;2022-07-23T15:40:18;21.50;60.20
2441;DHT22;1231;53.988;9.470;2022-07-23T15:42:49;21.40;60.20
2441;DHT22;1231;53.988;9.470;2022-07-23T15:45:20;21.30;60.30
2441;DHT22;1231;53.988;9.470;2022-07-23T15:47:50;21.30;60.60
2441;DHT22;1231;53.988;9.470;2022-07-23T15:50:21;21.30;60.50
2441;DHT22;1231;53.988;9.470;2022-07-23T15:52:52;21.30;60.50
2441;DHT22;1231;53.988;9.470;2022-07-23T15:55:22;21.30;60.90
2441;DHT22;1231;53.988;9.470;2022-07-23T15:57:53;21.30;61.50
2441;DHT22;1231;53.988;9.470;2022-07-23T16:00:24;21.30;61.90
2441;DHT22;1231;53.988;9.470;2022-07-23T16:02:54;21.30;61.20
2441;DHT22;1231;53.988;9.470;2022-07-23T16:05:25;21.40;61.40
2441;DHT22;1231;53.988;9.470;2022-07-23T16:07:55;21.40;61.40
2441;DHT22;1231;53.988;9.470;2022-07-23T16:10:27;21.30;61.80
2441;DHT22;1231;53.988;9.470;2022-07-23T16:12:58;21.20;61.70
2441;DHT22;1231;53.988;9.470;2022-07-23T16:15:29;21.10;62.30
2441;DHT22;1231;53.988;9.470;2022-07-23T16:18:00;21.10;62.70
2441;DHT22;1231;53.988;9.470;2022-07-23T16:20:30;21.10;63.10
2441;DHT22;1231;53.988;9.470;2022-07-23T16:23:01;21.10;62.80
2441;DHT22;1231;53.988;9.470;2022-07-23T16:25:32;21.10;62.60
2441;DHT22;1231;53.988;9.470;2022-07-23T16:28:03;21.10;62.80
2441;DHT22;1231;53.988;9.470;2022-07-23T16:30:34;21.10;62.60
2441;DHT22;1231;53.988;9.470;2022-07-23T16:33:06;21.20;62.60
2441;DHT22;1231;53.988;9.470;2022-07-23T16:35:36;21.30;62.20
2441;DHT22;1231;53.988;9.470;2022-07-23T16:38:07;21.20;62.00
2441;DHT22;1231;53.988;9.470;2022-07-23T16:40:38;21.10;61.70
2441;DHT22;1231;53.988;9.470;2022-07-23T16:43:08;21.00;61.60
2441;DHT22;1231;53.988;9.470;2022-07-23T16:45:39;20.90;61.30
2441;DHT22;1231;53.988;9.470;2022-07-23T16:48:10;20.90;61.40
2441;DHT22;1231;53.988;9.470;2022-07-23T16:50:41;20.90;61.90
2441;DHT22;1231;53.988;9.470;2022-07-23T16:53:11;20.80;61.40
2441;DHT22;1231;53.988;9.470;2022-07-23T16:55:42;20.80;61.40
2441;DHT22;1231;53.988;9.470;2022-07-23T16:58:13;20.70;61.40
2441;DHT22;1231;53.988;9.470;2022-07-23T17:00:44;20.70;61.50
2441;DHT22;1231;53.988;9.470;2022-07-23T17:03:14;20.60;61.50